Terminal Aerodrome Forecast
Issued by NWS

Home | Current Version | Previous Version | Text Only | Print | Product List | Glossary Off
Versions: 1 2 3 4 5 6 7 8 9 10 11 12 13

000
FTUS43 KMPX 152334
TAFAXN
TAF
KAXN 152334Z 1600/1624 16015G23KT P6SM SCT250
     FM160100 15012KT P6SM SCT070 BKN120
     FM160900 15007KT P6SM VCSH OVC060
     FM161600 23008KT P6SM OVC045
     FM162000 29010KT P6SM SCT045 BKN200=

USA.gov is the U.S. government's official web portal to all federal, state and local government web resources and services.